sensor_id;sensor_type;location;lat;lon;timestamp;temperature;humidity
24035;DHT22;12242;50.952;4.678;2023-05-16T00:00:53;9.50;99.90
24035;DHT22;12242;50.952;4.678;2023-05-16T00:03:20;9.50;99.90
24035;DHT22;12242;50.952;4.678;2023-05-16T00:05:48;9.40;99.90
24035;DHT22;12242;50.952;4.678;2023-05-16T00:08:17;9.40;99.90
24035;DHT22;12242;50.952;4.678;2023-05-16T00:10:44;9.30;99.90
24035;DHT22;12242;50.952;4.678;2023-05-16T00:13:12;9.30;99.90
24035;DHT22;12242;50.952;4.678;2023-05-16T00:15:39;9.20;99.90
24035;DHT22;12242;50.952;4.678;2023-05-16T00:18:07;9.10;99.90
24035;DHT22;12242;50.952;4.678;2023-05-16T00:20:36;9.10;99.90
24035;DHT22;12242;50.952;4.678;2023-05-16T00:23:03;9.10;99.90
24035;DHT22;12242;50.952;4.678;2023-05-16T00:25:31;9.00;99.90
24035;DHT22;12242;50.952;4.678;2023-05-16T00:27:58;9.00;99.90
24035;DHT22;12242;50.952;4.678;2023-05-16T00:30:26;9.00;99.90
24035;DHT22;12242;50.952;4.678;2023-05-16T00:32:54;9.00;99.90
24035;DHT22;12242;50.952;4.678;2023-05-16T00:35:23;9.00;99.90
24035;DHT22;12242;50.952;4.678;2023-05-16T00:37:50;8.90;99.90
24035;DHT22;12242;50.952;4.678;2023-05-16T00:40:18;8.90;99.90
24035;DHT22;12242;50.952;4.678;2023-05-16T00:42:45;8.90;99.90
24035;DHT22;12242;50.952;4.678;2023-05-16T00:45:13;8.80;99.90
24035;DHT22;12242;50.952;4.678;2023-05-16T00:47:41;8.80;99.90
24035;DHT22;12242;50.952;4.678;2023-05-16T00:50:09;8.80;99.90
24035;DHT22;12242;50.952;4.678;2023-05-16T00:52:37;8.80;99.90
24035;DHT22;12242;50.952;4.678;2023-05-16T00:55:05;8.80;99.90
24035;DHT22;12242;50.952;4.678;2023-05-16T00:57:32;8.70;99.90
24035;DHT22;12242;50.952;4.678;2023-05-16T01:00:00;8.70;99.90
24035;DHT22;12242;50.952;4.678;2023-05-16T01:02:28;8.60;99.90
24035;DHT22;12242;50.952;4.678;2023-05-16T01:04:55;8.70;99.90
24035;DHT22;12242;50.952;4.678;2023-05-16T01:07:24;8.60;99.90
24035;DHT22;12242;50.952;4.678;2023-05-16T01:09:52;8.60;99.90
24035;DHT22;12242;50.952;4.678;2023-05-16T01:12:24;8.60;99.90
24035;DHT22;12242;50.952;4.678;2023-05-16T01:15:08;8.50;99.90
24035;DHT22;12242;50.952;4.678;2023-05-16T01:17:48;8.60;99.90
24035;DHT22;12242;50.952;4.678;2023-05-16T01:20:47;8.60;99.90
24035;DHT22;12242;50.952;4.678;2023-05-16T01:26:25;8.50;99.90
24035;DHT22;12242;50.952;4.678;2023-05-16T01:28:54;8.40;99.90
24035;DHT22;12242;50.952;4.678;2023-05-16T01:31:22;8.40;99.90
24035;DHT22;12242;50.952;4.678;2023-05-16T01:33:50;8.40;99.90
24035;DHT22;12242;50.952;4.678;2023-05-16T01:42:08;8.30;99.90
24035;DHT22;12242;50.952;4.678;2023-05-16T01:44:49;8.30;99.90
24035;DHT22;12242;50.952;4.678;2023-05-16T01:47:20;8.20;99.90
24035;DHT22;12242;50.952;4.678;2023-05-16T01:52:27;8.20;99.90
24035;DHT22;12242;50.952;4.678;2023-05-16T01:54:58;8.10;99.90
24035;DHT22;12242;50.952;4.678;2023-05-16T01:57:27;8.20;99.90
24035;DHT22;12242;50.952;4.678;2023-05-16T01:59:57;8.20;99.90
24035;DHT22;12242;50.952;4.678;2023-05-16T02:02:25;8.20;99.90
24035;DHT22;12242;50.952;4.678;2023-05-16T02:04:52;8.20;99.90
24035;DHT22;12242;50.952;4.678;2023-05-16T02:07:20;8.10;99.90
24035;DHT22;12242;50.952;4.678;2023-05-16T02:09:47;8.00;99.90
24035;DHT22;12242;50.952;4.678;2023-05-16T02:12:15;8.10;99.90
24035;DHT22;12242;50.952;4.678;2023-05-16T02:14:43;8.00;99.90
24035;DHT22;12242;50.952;4.678;2023-05-16T02:17:10;8.10;99.90
24035;DHT22;12242;50.952;4.678;2023-05-16T02:19:38;8.00;99.90
24035;DHT22;12242;50.952;4.678;2023-05-16T02:22:05;8.00;99.90
24035;DHT22;12242;50.952;4.678;2023-05-16T02:24:33;7.90;99.90
24035;DHT22;12242;50.952;4.678;2023-05-16T02:27:01;7.90;99.90
24035;DHT22;12242;50.952;4.678;2023-05-16T02:29:28;7.90;99.90
24035;DHT22;12242;50.952;4.678;2023-05-16T02:31:56;8.00;99.90
24035;DHT22;12242;50.952;4.678;2023-05-16T02:34:23;7.90;99.90
24035;DHT22;12242;50.952;4.678;2023-05-16T02:36:51;7.90;99.90
24035;DHT22;12242;50.952;4.678;2023-05-16T02:39:18;7.90;99.90
24035;DHT22;12242;50.952;4.678;2023-05-16T02:41:46;7.90;99.90
24035;DHT22;12242;50.952;4.678;2023-05-16T02:44:13;7.90;99.90
24035;DHT22;12242;50.952;4.678;2023-05-16T02:46:41;7.80;99.90
24035;DHT22;12242;50.952;4.678;2023-05-16T02:49:09;7.80;99.90
24035;DHT22;12242;50.952;4.678;2023-05-16T02:51:36;7.80;99.90
24035;DHT22;12242;50.952;4.678;2023-05-16T02:54:04;7.80;99.90
24035;DHT22;12242;50.952;4.678;2023-05-16T02:56:35;7.80;99.90
24035;DHT22;12242;50.952;4.678;2023-05-16T02:59:04;7.80;99.90
24035;DHT22;12242;50.952;4.678;2023-05-16T03:01:31;7.80;99.90
24035;DHT22;12242;50.952;4.678;2023-05-16T03:03:59;7.70;99.90
24035;DHT22;12242;50.952;4.678;2023-05-16T03:06:27;7.70;99.90
24035;DHT22;12242;50.952;4.678;2023-05-16T03:08:56;7.70;99.90
24035;DHT22;12242;50.952;4.678;2023-05-16T03:11:25;7.70;99.90
24035;DHT22;12242;50.952;4.678;2023-05-16T03:13:55;7.70;99.90
24035;DHT22;12242;50.952;4.678;2023-05-16T03:16:22;7.60;99.90
24035;DHT22;12242;50.952;4.678;2023-05-16T03:18:50;7.60;99.90
24035;DHT22;12242;50.952;4.678;2023-05-16T03:21:18;7.60;99.90
24035;DHT22;12242;50.952;4.678;2023-05-16T03:23:45;7.60;99.90
24035;DHT22;12242;50.952;4.678;2023-05-16T03:26:13;7.60;99.90
24035;DHT22;12242;50.952;4.678;2023-05-16T03:28:40;7.60;99.90
24035;DHT22;12242;50.952;4.678;2023-05-16T03:31:08;7.60;99.90
24035;DHT22;12242;50.952;4.678;2023-05-16T03:33:35;7.70;99.90
24035;DHT22;12242;50.952;4.678;2023-05-16T03:36:03;7.60;99.90
24035;DHT22;12242;50.952;4.678;2023-05-16T03:38:31;7.60;99.90
24035;DHT22;12242;50.952;4.678;2023-05-16T03:40:59;7.60;99.90
24035;DHT22;12242;50.952;4.678;2023-05-16T03:43:27;7.70;99.90
24035;DHT22;12242;50.952;4.678;2023-05-16T03:45:55;7.70;99.90
24035;DHT22;12242;50.952;4.678;2023-05-16T03:48:23;7.70;99.90
24035;DHT22;12242;50.952;4.678;2023-05-16T03:50:50;7.70;99.90
24035;DHT22;12242;50.952;4.678;2023-05-16T03:53:18;7.60;99.90
24035;DHT22;12242;50.952;4.678;2023-05-16T03:55:46;7.60;99.90
24035;DHT22;12242;50.952;4.678;2023-05-16T03:58:15;7.70;99.90
24035;DHT22;12242;50.952;4.678;2023-05-16T04:00:42;7.70;99.90
24035;DHT22;12242;50.952;4.678;2023-05-16T04:03:12;7.60;99.90
24035;DHT22;12242;50.952;4.678;2023-05-16T04:05:40;7.60;99.90
24035;DHT22;12242;50.952;4.678;2023-05-16T04:08:07;7.60;99.90
24035;DHT22;12242;50.952;4.678;2023-05-16T04:10:35;7.60;99.90
24035;DHT22;12242;50.952;4.678;2023-05-16T04:13:02;7.60;99.90
24035;DHT22;12242;50.952;4.678;2023-05-16T04:15:30;7.60;99.90
24035;DHT22;12242;50.952;4.678;2023-05-16T04:17:57;7.60;99.90
24035;DHT22;12242;50.952;4.678;2023-05-16T04:20:25;7.60;99.90
24035;DHT22;12242;50.952;4.678;2023-05-16T04:22:53;7.70;99.90
24035;DHT22;12242;50.952;4.678;2023-05-16T04:25:21;7.90;99.90
24035;DHT22;12242;50.952;4.678;2023-05-16T04:27:48;7.90;99.90
24035;DHT22;12242;50.952;4.678;2023-05-16T04:30:15;8.00;99.90
24035;DHT22;12242;50.952;4.678;2023-05-16T04:32:43;8.10;99.90
24035;DHT22;12242;50.952;4.678;2023-05-16T04:35:11;8.00;99.90
24035;DHT22;12242;50.952;4.678;2023-05-16T04:37:39;8.10;99.90
24035;DHT22;12242;50.952;4.678;2023-05-16T04:40:07;8.30;99.90
24035;DHT22;12242;50.952;4.678;2023-05-16T04:42:36;8.50;99.90
24035;DHT22;12242;50.952;4.678;2023-05-16T04:45:04;8.60;99.90
24035;DHT22;12242;50.952;4.678;2023-05-16T04:47:32;8.70;99.90
24035;DHT22;12242;50.952;4.678;2023-05-16T04:50:00;8.90;99.90
24035;DHT22;12242;50.952;4.678;2023-05-16T04:52:28;9.70;99.90
24035;DHT22;12242;50.952;4.678;2023-05-16T04:54:56;10.80;99.90
24035;DHT22;12242;50.952;4.678;2023-05-16T04:57:26;11.50;99.90
24035;DHT22;12242;50.952;4.678;2023-05-16T04:59:54;12.40;99.90
24035;DHT22;12242;50.952;4.678;2023-05-16T05:02:22;13.30;99.90
24035;DHT22;12242;50.952;4.678;2023-05-16T05:04:50;14.30;99.90
24035;DHT22;12242;50.952;4.678;2023-05-16T05:07:17;15.00;99.90
24035;DHT22;12242;50.952;4.678;2023-05-16T05:09:45;15.50;99.90
24035;DHT22;12242;50.952;4.678;2023-05-16T05:12:12;16.00;99.90
24035;DHT22;12242;50.952;4.678;2023-05-16T05:14:40;16.60;99.90
24035;DHT22;12242;50.952;4.678;2023-05-16T05:17:08;17.10;99.90
24035;DHT22;12242;50.952;4.678;2023-05-16T05:19:35;17.20;99.90
24035;DHT22;12242;50.952;4.678;2023-05-16T05:22:03;17.20;99.90
24035;DHT22;12242;50.952;4.678;2023-05-16T05:24:30;17.00;99.90
24035;DHT22;12242;50.952;4.678;2023-05-16T05:26:58;16.90;99.90
24035;DHT22;12242;50.952;4.678;2023-05-16T05:29:26;17.30;99.90
24035;DHT22;12242;50.952;4.678;2023-05-16T05:31:53;17.80;99.90
24035;DHT22;12242;50.952;4.678;2023-05-16T05:34:21;17.80;99.90
24035;DHT22;12242;50.952;4.678;2023-05-16T05:36:48;17.60;99.90
24035;DHT22;12242;50.952;4.678;2023-05-16T05:39:16;17.90;99.90
24035;DHT22;12242;50.952;4.678;2023-05-16T05:41:44;18.70;99.90
24035;DHT22;12242;50.952;4.678;2023-05-16T05:44:12;19.00;99.50
24035;DHT22;12242;50.952;4.678;2023-05-16T05:46:40;19.00;99.60
24035;DHT22;12242;50.952;4.678;2023-05-16T05:49:07;18.40;99.90
24035;DHT22;12242;50.952;4.678;2023-05-16T05:51:35;17.60;99.90
24035;DHT22;12242;50.952;4.678;2023-05-16T05:54:03;16.60;99.90
24035;DHT22;12242;50.952;4.678;2023-05-16T05:56:30;16.90;99.90
24035;DHT22;12242;50.952;4.678;2023-05-16T05:58:58;18.00;99.90
24035;DHT22;12242;50.952;4.678;2023-05-16T06:01:25;19.20;99.50
24035;DHT22;12242;50.952;4.678;2023-05-16T06:03:53;20.30;98.10
24035;DHT22;12242;50.952;4.678;2023-05-16T06:06:21;21.00;95.80
24035;DHT22;12242;50.952;4.678;2023-05-16T06:08:49;21.40;94.50
24035;DHT22;12242;50.952;4.678;2023-05-16T06:11:17;21.30;93.10
24035;DHT22;12242;50.952;4.678;2023-05-16T06:13:44;22.30;93.90
24035;DHT22;12242;50.952;4.678;2023-05-16T06:16:12;23.20;90.80
24035;DHT22;12242;50.952;4.678;2023-05-16T06:18:40;23.10;89.90
24035;DHT22;12242;50.952;4.678;2023-05-16T06:21:07;23.30;89.00
24035;DHT22;12242;50.952;4.678;2023-05-16T06:23:35;23.90;86.20
24035;DHT22;12242;50.952;4.678;2023-05-16T06:26:03;23.10;84.60
24035;DHT22;12242;50.952;4.678;2023-05-16T06:28:31;22.50;85.30
24035;DHT22;12242;50.952;4.678;2023-05-16T06:30:58;22.00;88.30
24035;DHT22;12242;50.952;4.678;2023-05-16T06:33:26;22.40;86.30
24035;DHT22;12242;50.952;4.678;2023-05-16T06:35:53;22.00;85.10
24035;DHT22;12242;50.952;4.678;2023-05-16T06:38:21;21.00;87.80
24035;DHT22;12242;50.952;4.678;2023-05-16T06:40:48;21.50;90.10
24035;DHT22;12242;50.952;4.678;2023-05-16T06:43:16;21.60;86.90
24035;DHT22;12242;50.952;4.678;2023-05-16T06:45:44;21.50;87.70
24035;DHT22;12242;50.952;4.678;2023-05-16T06:48:13;21.60;88.70
24035;DHT22;12242;50.952;4.678;2023-05-16T06:50:42;22.40;85.60
24035;DHT22;12242;50.952;4.678;2023-05-16T06:53:10;21.30;86.20
24035;DHT22;12242;50.952;4.678;2023-05-16T06:55:38;20.80;90.00
24035;DHT22;12242;50.952;4.678;2023-05-16T06:58:05;20.20;89.00
24035;DHT22;12242;50.952;4.678;2023-05-16T07:00:33;19.10;92.40
24035;DHT22;12242;50.952;4.678;2023-05-16T07:03:01;20.00;90.80
24035;DHT22;12242;50.952;4.678;2023-05-16T07:05:30;20.50;90.00
24035;DHT22;12242;50.952;4.678;2023-05-16T07:07:57;19.10;90.10
24035;DHT22;12242;50.952;4.678;2023-05-16T07:10:25;18.40;92.30
24035;DHT22;12242;50.952;4.678;2023-05-16T07:12:53;18.10;93.20
24035;DHT22;12242;50.952;4.678;2023-05-16T07:15:22;19.70;91.20
24035;DHT22;12242;50.952;4.678;2023-05-16T07:17:49;18.30;91.80
24035;DHT22;12242;50.952;4.678;2023-05-16T07:20:17;18.80;91.50
24035;DHT22;12242;50.952;4.678;2023-05-16T07:22:45;17.80;91.20
24035;DHT22;12242;50.952;4.678;2023-05-16T07:25:12;17.40;92.70
24035;DHT22;12242;50.952;4.678;2023-05-16T07:27:42;18.50;93.10
24035;DHT22;12242;50.952;4.678;2023-05-16T07:30:12;19.40;92.10
24035;DHT22;12242;50.952;4.678;2023-05-16T07:32:40;19.10;92.20
24035;DHT22;12242;50.952;4.678;2023-05-16T07:35:09;20.90;90.00
24035;DHT22;12242;50.952;4.678;2023-05-16T07:37:37;20.80;83.60
24035;DHT22;12242;50.952;4.678;2023-05-16T07:40:05;20.10;84.70
24035;DHT22;12242;50.952;4.678;2023-05-16T07:42:33;18.80;89.20
24035;DHT22;12242;50.952;4.678;2023-05-16T07:45:01;18.20;90.30
24035;DHT22;12242;50.952;4.678;2023-05-16T07:47:28;16.10;91.80
24035;DHT22;12242;50.952;4.678;2023-05-16T07:49:56;15.50;94.70
24035;DHT22;12242;50.952;4.678;2023-05-16T07:52:24;15.20;96.40
24035;DHT22;12242;50.952;4.678;2023-05-16T07:54:51;16.50;93.70
24035;DHT22;12242;50.952;4.678;2023-05-16T07:57:19;16.60;93.50
24035;DHT22;12242;50.952;4.678;2023-05-16T07:59:51;17.10;93.40
24035;DHT22;12242;50.952;4.678;2023-05-16T08:02:19;18.50;91.20
24035;DHT22;12242;50.952;4.678;2023-05-16T08:04:47;19.60;89.00
24035;DHT22;12242;50.952;4.678;2023-05-16T08:07:16;21.10;87.00
24035;DHT22;12242;50.952;4.678;2023-05-16T08:09:44;22.30;80.90
24035;DHT22;12242;50.952;4.678;2023-05-16T08:12:11;23.50;76.80
24035;DHT22;12242;50.952;4.678;2023-05-16T08:14:40;23.10;75.10
24035;DHT22;12242;50.952;4.678;2023-05-16T08:17:07;23.30;76.90
24035;DHT22;12242;50.952;4.678;2023-05-16T08:19:35;24.40;75.30
24035;DHT22;12242;50.952;4.678;2023-05-16T08:22:05;25.60;69.40
24035;DHT22;12242;50.952;4.678;2023-05-16T08:24:33;25.40;67.20
24035;DHT22;12242;50.952;4.678;2023-05-16T08:27:01;23.40;70.30
24035;DHT22;12242;50.952;4.678;2023-05-16T08:29:28;22.20;73.10
24035;DHT22;12242;50.952;4.678;2023-05-16T08:31:57;21.30;75.30
24035;DHT22;12242;50.952;4.678;2023-05-16T08:34:25;20.50;77.50
24035;DHT22;12242;50.952;4.678;2023-05-16T08:36:53;19.20;81.60
24035;DHT22;12242;50.952;4.678;2023-05-16T08:39:21;18.10;87.50
24035;DHT22;12242;50.952;4.678;2023-05-16T08:41:48;17.20;89.70
24035;DHT22;12242;50.952;4.678;2023-05-16T08:44:16;16.60;91.70
24035;DHT22;12242;50.952;4.678;2023-05-16T08:46:50;16.40;92.80
24035;DHT22;12242;50.952;4.678;2023-05-16T08:49:19;16.90;92.70
24035;DHT22;12242;50.952;4.678;2023-05-16T08:51:48;18.80;90.40
24035;DHT22;12242;50.952;4.678;2023-05-16T08:54:18;20.60;85.80
24035;DHT22;12242;50.952;4.678;2023-05-16T08:56:46;21.10;81.60
24035;DHT22;12242;50.952;4.678;2023-05-16T08:59:16;22.30;83.10
24035;DHT22;12242;50.952;4.678;2023-05-16T09:01:46;21.40;81.80
24035;DHT22;12242;50.952;4.678;2023-05-16T09:04:15;21.70;79.30
24035;DHT22;12242;50.952;4.678;2023-05-16T09:06:42;22.10;83.40
24035;DHT22;12242;50.952;4.678;2023-05-16T09:09:10;23.50;76.00
24035;DHT22;12242;50.952;4.678;2023-05-16T09:11:39;24.60;72.10
24035;DHT22;12242;50.952;4.678;2023-05-16T09:14:07;24.20;70.60
24035;DHT22;12242;50.952;4.678;2023-05-16T09:16:34;25.00;70.80
24035;DHT22;12242;50.952;4.678;2023-05-16T09:19:02;24.90;68.40
24035;DHT22;12242;50.952;4.678;2023-05-16T09:21:33;25.00;68.50
24035;DHT22;12242;50.952;4.678;2023-05-16T09:24:05;24.20;69.10
24035;DHT22;12242;50.952;4.678;2023-05-16T09:26:35;21.70;74.20
24035;DHT22;12242;50.952;4.678;2023-05-16T09:29:12;21.20;78.20
24035;DHT22;12242;50.952;4.678;2023-05-16T09:31:40;21.90;76.20
24035;DHT22;12242;50.952;4.678;2023-05-16T09:34:09;22.00;75.20
24035;DHT22;12242;50.952;4.678;2023-05-16T09:36:40;22.80;72.60
24035;DHT22;12242;50.952;4.678;2023-05-16T09:39:14;24.10;69.80
24035;DHT22;12242;50.952;4.678;2023-05-16T09:41:42;23.90;71.30
24035;DHT22;12242;50.952;4.678;2023-05-16T09:44:11;23.00;72.60
24035;DHT22;12242;50.952;4.678;2023-05-16T09:46:39;23.40;72.60
24035;DHT22;12242;50.952;4.678;2023-05-16T09:49:11;24.00;71.90
24035;DHT22;12242;50.952;4.678;2023-05-16T09:51:40;21.00;74.70
24035;DHT22;12242;50.952;4.678;2023-05-16T09:54:08;19.50;80.20
24035;DHT22;12242;50.952;4.678;2023-05-16T09:56:49;19.60;79.60
24035;DHT22;12242;50.952;4.678;2023-05-16T09:59:17;19.50;81.10
24035;DHT22;12242;50.952;4.678;2023-05-16T10:01:46;20.40;78.50
24035;DHT22;12242;50.952;4.678;2023-05-16T10:04:15;22.10;74.10
24035;DHT22;12242;50.952;4.678;2023-05-16T10:06:44;22.80;70.30
24035;DHT22;12242;50.952;4.678;2023-05-16T10:09:14;23.70;68.60
24035;DHT22;12242;50.952;4.678;2023-05-16T10:11:47;24.00;68.20
24035;DHT22;12242;50.952;4.678;2023-05-16T10:14:19;21.80;73.10
24035;DHT22;12242;50.952;4.678;2023-05-16T10:16:48;20.70;74.80
24035;DHT22;12242;50.952;4.678;2023-05-16T10:19:19;20.70;76.10
24035;DHT22;12242;50.952;4.678;2023-05-16T10:21:51;22.50;73.50
24035;DHT22;12242;50.952;4.678;2023-05-16T10:24:25;22.50;72.10
24035;DHT22;12242;50.952;4.678;2023-05-16T10:26:55;22.30;70.80
24035;DHT22;12242;50.952;4.678;2023-05-16T10:29:23;23.00;71.70
24035;DHT22;12242;50.952;4.678;2023-05-16T10:31:52;23.10;69.70
24035;DHT22;12242;50.952;4.678;2023-05-16T10:34:21;23.80;66.50
24035;DHT22;12242;50.952;4.678;2023-05-16T10:36:49;25.90;65.00
24035;DHT22;12242;50.952;4.678;2023-05-16T10:39:17;25.30;61.10
24035;DHT22;12242;50.952;4.678;2023-05-16T10:41:46;21.60;67.30
24035;DHT22;12242;50.952;4.678;2023-05-16T10:44:14;20.30;72.30
24035;DHT22;12242;50.952;4.678;2023-05-16T10:46:46;19.50;73.40
24035;DHT22;12242;50.952;4.678;2023-05-16T10:49:25;19.40;78.00
24035;DHT22;12242;50.952;4.678;2023-05-16T10:52:10;19.20;77.90
24035;DHT22;12242;50.952;4.678;2023-05-16T10:54:42;20.00;77.70
24035;DHT22;12242;50.952;4.678;2023-05-16T10:57:17;21.20;73.90
24035;DHT22;12242;50.952;4.678;2023-05-16T10:59:48;20.90;72.60
24035;DHT22;12242;50.952;4.678;2023-05-16T11:02:29;20.60;71.90
24035;DHT22;12242;50.952;4.678;2023-05-16T11:05:02;20.50;77.70
24035;DHT22;12242;50.952;4.678;2023-05-16T11:07:34;20.80;68.40
24035;DHT22;12242;50.952;4.678;2023-05-16T11:10:09;21.90;71.60
24035;DHT22;12242;50.952;4.678;2023-05-16T11:12:47;21.70;69.20
24035;DHT22;12242;50.952;4.678;2023-05-16T11:15:24;22.10;66.90
24035;DHT22;12242;50.952;4.678;2023-05-16T11:18:07;20.90;68.00
24035;DHT22;12242;50.952;4.678;2023-05-16T11:20:37;20.00;71.20
24035;DHT22;12242;50.952;4.678;2023-05-16T11:23:24;19.30;73.80
24035;DHT22;12242;50.952;4.678;2023-05-16T11:25:56;18.40;76.60
24035;DHT22;12242;50.952;4.678;2023-05-16T11:28:25;18.10;79.80
24035;DHT22;12242;50.952;4.678;2023-05-16T11:30:56;18.40;80.10
24035;DHT22;12242;50.952;4.678;2023-05-16T11:33:24;19.60;79.50
24035;DHT22;12242;50.952;4.678;2023-05-16T11:36:02;19.80;76.60
24035;DHT22;12242;50.952;4.678;2023-05-16T11:38:42;20.90;76.10
24035;DHT22;12242;50.952;4.678;2023-05-16T11:41:10;22.20;70.40
24035;DHT22;12242;50.952;4.678;2023-05-16T11:43:43;21.00;72.60
24035;DHT22;12242;50.952;4.678;2023-05-16T11:46:13;20.60;73.20
24035;DHT22;12242;50.952;4.678;2023-05-16T11:48:41;19.80;72.20
24035;DHT22;12242;50.952;4.678;2023-05-16T11:51:09;19.00;74.90
24035;DHT22;12242;50.952;4.678;2023-05-16T11:53:37;18.90;77.90
24035;DHT22;12242;50.952;4.678;2023-05-16T11:56:07;19.30;79.30
24035;DHT22;12242;50.952;4.678;2023-05-16T11:58:34;18.90;75.40
24035;DHT22;12242;50.952;4.678;2023-05-16T12:01:04;18.90;78.10
24035;DHT22;12242;50.952;4.678;2023-05-16T12:03:32;18.40;76.70
24035;DHT22;12242;50.952;4.678;2023-05-16T12:06:02;18.50;80.90
24035;DHT22;12242;50.952;4.678;2023-05-16T12:08:30;18.60;77.00
24035;DHT22;12242;50.952;4.678;2023-05-16T12:10:58;19.00;78.10
24035;DHT22;12242;50.952;4.678;2023-05-16T12:13:26;19.00;78.60
24035;DHT22;12242;50.952;4.678;2023-05-16T12:15:54;19.20;79.40
24035;DHT22;12242;50.952;4.678;2023-05-16T12:18:23;18.80;77.30
24035;DHT22;12242;50.952;4.678;2023-05-16T12:20:51;18.70;79.50
24035;DHT22;12242;50.952;4.678;2023-05-16T12:23:20;18.50;80.00
24035;DHT22;12242;50.952;4.678;2023-05-16T12:25:47;18.50;80.00
24035;DHT22;12242;50.952;4.678;2023-05-16T12:28:15;18.50;79.80
24035;DHT22;12242;50.952;4.678;2023-05-16T12:30:44;18.60;78.50
24035;DHT22;12242;50.952;4.678;2023-05-16T12:33:15;18.20;78.10
24035;DHT22;12242;50.952;4.678;2023-05-16T12:35:45;18.50;80.70
24035;DHT22;12242;50.952;4.678;2023-05-16T12:38:14;18.80;77.80
24035;DHT22;12242;50.952;4.678;2023-05-16T12:40:44;18.50;75.90
24035;DHT22;12242;50.952;4.678;2023-05-16T12:43:30;18.30;77.50
24035;DHT22;12242;50.952;4.678;2023-05-16T12:45:58;17.80;79.20
24035;DHT22;12242;50.952;4.678;2023-05-16T12:48:32;17.50;78.40
24035;DHT22;12242;50.952;4.678;2023-05-16T12:51:17;17.30;78.60
24035;DHT22;12242;50.952;4.678;2023-05-16T12:53:46;17.50;81.80
24035;DHT22;12242;50.952;4.678;2023-05-16T12:56:34;17.90;83.40
24035;DHT22;12242;50.952;4.678;2023-05-16T12:59:02;18.50;82.10
24035;DHT22;12242;50.952;4.678;2023-05-16T13:01:29;18.70;81.00
24035;DHT22;12242;50.952;4.678;2023-05-16T13:03:57;18.60;78.00
24035;DHT22;12242;50.952;4.678;2023-05-16T13:06:25;18.10;80.50
24035;DHT22;12242;50.952;4.678;2023-05-16T13:08:53;17.90;81.60
24035;DHT22;12242;50.952;4.678;2023-05-16T13:11:22;17.90;79.40
24035;DHT22;12242;50.952;4.678;2023-05-16T13:13:49;17.70;81.20
24035;DHT22;12242;50.952;4.678;2023-05-16T13:16:17;17.30;80.80
24035;DHT22;12242;50.952;4.678;2023-05-16T13:18:45;17.10;82.50
24035;DHT22;12242;50.952;4.678;2023-05-16T13:21:13;17.20;83.90
24035;DHT22;12242;50.952;4.678;2023-05-16T13:23:41;17.10;83.70
24035;DHT22;12242;50.952;4.678;2023-05-16T13:26:08;17.00;84.60
24035;DHT22;12242;50.952;4.678;2023-05-16T13:28:36;16.80;87.90
24035;DHT22;12242;50.952;4.678;2023-05-16T13:31:04;16.60;84.20
24035;DHT22;12242;50.952;4.678;2023-05-16T13:33:32;16.80;83.70
24035;DHT22;12242;50.952;4.678;2023-05-16T13:36:00;16.80;83.50
24035;DHT22;12242;50.952;4.678;2023-05-16T13:38:27;17.10;85.00
24035;DHT22;12242;50.952;4.678;2023-05-16T13:40:55;17.30;84.10
24035;DHT22;12242;50.952;4.678;2023-05-16T13:43:23;17.50;86.40
24035;DHT22;12242;50.952;4.678;2023-05-16T13:45:50;17.30;84.50
24035;DHT22;12242;50.952;4.678;2023-05-16T13:48:18;17.20;83.50
24035;DHT22;12242;50.952;4.678;2023-05-16T13:50:46;17.10;85.80
24035;DHT22;12242;50.952;4.678;2023-05-16T13:53:13;17.00;86.90
24035;DHT22;12242;50.952;4.678;2023-05-16T13:55:41;17.10;85.90
24035;DHT22;12242;50.952;4.678;2023-05-16T13:58:09;17.10;84.00
24035;DHT22;12242;50.952;4.678;2023-05-16T14:00:36;17.40;85.80
24035;DHT22;12242;50.952;4.678;2023-05-16T14:03:12;17.50;82.70
24035;DHT22;12242;50.952;4.678;2023-05-16T14:05:40;18.00;87.00
24035;DHT22;12242;50.952;4.678;2023-05-16T14:08:08;18.00;83.70
24035;DHT22;12242;50.952;4.678;2023-05-16T14:10:36;17.90;83.60
24035;DHT22;12242;50.952;4.678;2023-05-16T14:13:03;18.10;84.60
24035;DHT22;12242;50.952;4.678;2023-05-16T14:15:31;17.90;84.90
24035;DHT22;12242;50.952;4.678;2023-05-16T14:17:58;17.90;85.60
24035;DHT22;12242;50.952;4.678;2023-05-16T14:20:27;17.50;84.60
24035;DHT22;12242;50.952;4.678;2023-05-16T14:22:54;17.10;86.60
24035;DHT22;12242;50.952;4.678;2023-05-16T14:25:23;17.00;85.60
24035;DHT22;12242;50.952;4.678;2023-05-16T14:27:50;16.90;88.50
24035;DHT22;12242;50.952;4.678;2023-05-16T14:30:18;16.90;88.50
24035;DHT22;12242;50.952;4.678;2023-05-16T14:32:46;16.60;87.90
24035;DHT22;12242;50.952;4.678;2023-05-16T14:35:14;16.50;90.30
24035;DHT22;12242;50.952;4.678;2023-05-16T14:37:42;16.80;91.10
24035;DHT22;12242;50.952;4.678;2023-05-16T14:40:10;17.10;90.80
24035;DHT22;12242;50.952;4.678;2023-05-16T14:42:38;17.20;87.00
24035;DHT22;12242;50.952;4.678;2023-05-16T14:45:06;17.20;87.20
24035;DHT22;12242;50.952;4.678;2023-05-16T14:47:34;17.20;85.80
24035;DHT22;12242;50.952;4.678;2023-05-16T14:50:03;17.20;88.80
24035;DHT22;12242;50.952;4.678;2023-05-16T14:52:31;17.30;86.90
24035;DHT22;12242;50.952;4.678;2023-05-16T14:54:59;17.10;86.90
24035;DHT22;12242;50.952;4.678;2023-05-16T14:57:28;17.20;85.50
24035;DHT22;12242;50.952;4.678;2023-05-16T14:59:56;17.40;87.90
24035;DHT22;12242;50.952;4.678;2023-05-16T15:02:24;17.50;85.10
24035;DHT22;12242;50.952;4.678;2023-05-16T15:04:53;17.30;84.50
24035;DHT22;12242;50.952;4.678;2023-05-16T15:07:22;17.20;86.70
24035;DHT22;12242;50.952;4.678;2023-05-16T15:09:49;17.10;86.70
24035;DHT22;12242;50.952;4.678;2023-05-16T15:12:17;17.10;88.30
24035;DHT22;12242;50.952;4.678;2023-05-16T15:14:45;17.10;85.00
24035;DHT22;12242;50.952;4.678;2023-05-16T15:17:12;17.00;85.80
24035;DHT22;12242;50.952;4.678;2023-05-16T15:19:40;16.90;86.80
24035;DHT22;12242;50.952;4.678;2023-05-16T15:22:07;16.90;88.50
24035;DHT22;12242;50.952;4.678;2023-05-16T15:24:37;16.80;87.40
24035;DHT22;12242;50.952;4.678;2023-05-16T15:27:04;17.20;88.90
24035;DHT22;12242;50.952;4.678;2023-05-16T15:29:32;17.30;87.00
24035;DHT22;12242;50.952;4.678;2023-05-16T15:32:03;17.30;88.10
24035;DHT22;12242;50.952;4.678;2023-05-16T15:34:34;17.30;85.60
24035;DHT22;12242;50.952;4.678;2023-05-16T15:37:01;17.10;86.70
24035;DHT22;12242;50.952;4.678;2023-05-16T15:39:29;16.80;87.10
24035;DHT22;12242;50.952;4.678;2023-05-16T15:41:56;16.70;87.00
24035;DHT22;12242;50.952;4.678;2023-05-16T15:44:37;16.70;88.50
24035;DHT22;12242;50.952;4.678;2023-05-16T15:47:06;16.70;88.30
24035;DHT22;12242;50.952;4.678;2023-05-16T15:49:34;17.00;89.20
24035;DHT22;12242;50.952;4.678;2023-05-16T15:52:01;17.10;88.00
24035;DHT22;12242;50.952;4.678;2023-05-16T15:54:29;17.50;83.30
24035;DHT22;12242;50.952;4.678;2023-05-16T15:56:57;17.40;84.10